sensor_id;sensor_type;location;lat;lon;timestamp;pressure;altitude;pressure_sealevel;temperature;humidity
7180;BME280;3631;42.152;24.756;2023-02-11T00:00:27;101320.03;;;-3.01;69.98
7180;BME280;3631;42.152;24.756;2023-02-11T00:03:28;101321.63;;;-3.03;69.06
7180;BME280;3631;42.152;24.756;2023-02-11T00:09:14;101318.34;;;-2.85;67.96
7180;BME280;3631;42.152;24.756;2023-02-11T00:11:54;101333.41;;;-2.88;67.75
7180;BME280;3631;42.152;24.756;2023-02-11T00:15:15;101293.81;;;-3.16;67.99
7180;BME280;3631;42.152;24.756;2023-02-11T00:18:12;101319.03;;;-2.88;67.58
7180;BME280;3631;42.152;24.756;2023-02-11T00:21:16;101331.03;;;-2.85;67.88
7180;BME280;3631;42.152;24.756;2023-02-11T00:24:26;101318.47;;;-2.99;68.64
7180;BME280;3631;42.152;24.756;2023-02-11T00:27:36;101327.66;;;-3.01;69.12
7180;BME280;3631;42.152;24.756;2023-02-11T00:30:34;101327.84;;;-2.98;69.89
7180;BME280;3631;42.152;24.756;2023-02-11T00:33:18;101326.25;;;-2.96;69.94
7180;BME280;3631;42.152;24.756;2023-02-11T00:36:06;101326.75;;;-3.17;70.49
7180;BME280;3631;42.152;24.756;2023-02-11T00:39:22;101322.69;;;-3.14;70.49
7180;BME280;3631;42.152;24.756;2023-02-11T00:42:38;101324.34;;;-3.00;70.05
7180;BME280;3631;42.152;24.756;2023-02-11T00:45:40;101330.22;;;-3.01;69.99
7180;BME280;3631;42.152;24.756;2023-02-11T00:48:34;101323.63;;;-3.28;70.33
7180;BME280;3631;42.152;24.756;2023-02-11T00:51:39;101319.19;;;-3.16;70.88
7180;BME280;3631;42.152;24.756;2023-02-11T00:54:38;101321.25;;;-3.25;70.94
7180;BME280;3631;42.152;24.756;2023-02-11T00:57:39;101324.56;;;-3.26;71.29
7180;BME280;3631;42.152;24.756;2023-02-11T01:00:38;101308.84;;;-3.50;71.77
7180;BME280;3631;42.152;24.756;2023-02-11T01:03:20;101322.69;;;-3.45;72.12
7180;BME280;3631;42.152;24.756;2023-02-11T01:06:22;101319.25;;;-3.31;71.10
7180;BME280;3631;42.152;24.756;2023-02-11T01:09:18;101324.25;;;-3.32;71.36
7180;BME280;3631;42.152;24.756;2023-02-11T01:12:20;101319.78;;;-3.36;71.25
7180;BME280;3631;42.152;24.756;2023-02-11T01:15:21;101311.22;;;-3.53;72.02
7180;BME280;3631;42.152;24.756;2023-02-11T01:18:38;101308.66;;;-3.38;71.84
7180;BME280;3631;42.152;24.756;2023-02-11T01:21:37;101306.78;;;-3.26;71.17
7180;BME280;3631;42.152;24.756;2023-02-11T01:24:34;101298.25;;;-3.28;71.34
7180;BME280;3631;42.152;24.756;2023-02-11T01:27:42;101298.75;;;-3.34;71.97
7180;BME280;3631;42.152;24.756;2023-02-11T01:30:44;101298.28;;;-3.26;72.30
7180;BME280;3631;42.152;24.756;2023-02-11T01:33:39;101293.19;;;-3.43;73.96
7180;BME280;3631;42.152;24.756;2023-02-11T01:36:31;101288.00;;;-3.44;74.00
7180;BME280;3631;42.152;24.756;2023-02-11T01:39:34;101244.34;;;-3.84;74.60
7180;BME280;3631;42.152;24.756;2023-02-11T01:42:40;101272.81;;;-3.59;75.27
7180;BME280;3631;42.152;24.756;2023-02-11T01:49:27;101275.22;;;-3.46;75.58
7180;BME280;3631;42.152;24.756;2023-02-11T01:52:35;101279.31;;;-3.64;76.48
7180;BME280;3631;42.152;24.756;2023-02-11T01:55:29;101271.78;;;-3.62;76.73
7180;BME280;3631;42.152;24.756;2023-02-11T01:58:35;101277.91;;;-3.74;77.24
7180;BME280;3631;42.152;24.756;2023-02-11T02:01:28;101268.63;;;-3.73;77.43
7180;BME280;3631;42.152;24.756;2023-02-11T02:07:34;101269.25;;;-3.62;75.87
7180;BME280;3631;42.152;24.756;2023-02-11T02:10:29;101271.22;;;-3.57;75.07
7180;BME280;3631;42.152;24.756;2023-02-11T02:13:42;101262.69;;;-3.74;76.09
7180;BME280;3631;42.152;24.756;2023-02-11T02:16:51;101255.31;;;-3.69;77.67
7180;BME280;3631;42.152;24.756;2023-02-11T02:23:30;101262.50;;;-3.77;75.33
7180;BME280;3631;42.152;24.756;2023-02-11T02:27:14;101255.13;;;-3.72;75.16
7180;BME280;3631;42.152;24.756;2023-02-11T02:33:51;101266.69;;;-3.92;76.03
7180;BME280;3631;42.152;24.756;2023-02-11T02:37:00;101267.31;;;-3.81;75.48
7180;BME280;3631;42.152;24.756;2023-02-11T02:40:14;101269.84;;;-3.81;75.72
7180;BME280;3631;42.152;24.756;2023-02-11T02:43:23;101283.00;;;-3.74;75.52
7180;BME280;3631;42.152;24.756;2023-02-11T02:46:27;101287.88;;;-3.77;75.89
7180;BME280;3631;42.152;24.756;2023-02-11T02:49:27;101285.06;;;-3.67;75.51
7180;BME280;3631;42.152;24.756;2023-02-11T02:52:38;101289.38;;;-3.66;75.18
7180;BME280;3631;42.152;24.756;2023-02-11T02:55:57;101290.47;;;-3.60;75.17
7180;BME280;3631;42.152;24.756;2023-02-11T02:59:12;101298.03;;;-3.77;76.00
7180;BME280;3631;42.152;24.756;2023-02-11T03:02:45;101234.53;;;-4.08;76.33
7180;BME280;3631;42.152;24.756;2023-02-11T03:09:11;101280.34;;;-3.90;77.13
7180;BME280;3631;42.152;24.756;2023-02-11T03:12:07;101280.34;;;-3.75;76.80
7180;BME280;3631;42.152;24.756;2023-02-11T03:15:16;101286.91;;;-3.79;75.96
7180;BME280;3631;42.152;24.756;2023-02-11T03:18:29;101283.91;;;-3.72;75.87
7180;BME280;3631;42.152;24.756;2023-02-11T03:21:50;101291.09;;;-3.79;76.81
7180;BME280;3631;42.152;24.756;2023-02-11T03:31:37;101287.28;;;-3.87;77.17
7180;BME280;3631;42.152;24.756;2023-02-11T03:38:05;101282.88;;;-3.90;77.70
7180;BME280;3631;42.152;24.756;2023-02-11T03:41:01;101278.97;;;-3.99;77.93
7180;BME280;3631;42.152;24.756;2023-02-11T03:44:09;101293.03;;;-4.05;78.62
7180;BME280;3631;42.152;24.756;2023-02-11T03:50:33;101286.19;;;-4.06;78.96
7180;BME280;3631;42.152;24.756;2023-02-11T03:56:55;101279.56;;;-4.18;81.02
7180;BME280;3631;42.152;24.756;2023-02-11T03:59:56;101280.19;;;-4.08;81.50
7180;BME280;3631;42.152;24.756;2023-02-11T04:02:59;101274.72;;;-4.28;82.74
7180;BME280;3631;42.152;24.756;2023-02-11T04:09:27;101274.56;;;-4.31;83.85
7180;BME280;3631;42.152;24.756;2023-02-11T04:15:22;101286.34;;;-4.17;83.41
7180;BME280;3631;42.152;24.756;2023-02-11T04:18:33;101280.69;;;-4.13;83.26
7180;BME280;3631;42.152;24.756;2023-02-11T04:21:40;101285.31;;;-4.06;83.78
7180;BME280;3631;42.152;24.756;2023-02-11T04:24:33;101275.47;;;-4.02;82.92
7180;BME280;3631;42.152;24.756;2023-02-11T04:27:33;101274.06;;;-3.96;82.16
7180;BME280;3631;42.152;24.756;2023-02-11T04:30:24;101278.53;;;-4.07;83.09
7180;BME280;3631;42.152;24.756;2023-02-11T04:33:17;101272.31;;;-4.12;84.27
7180;BME280;3631;42.152;24.756;2023-02-11T04:36:13;101266.44;;;-4.11;84.57
7180;BME280;3631;42.152;24.756;2023-02-11T04:39:23;101269.31;;;-4.05;83.44
7180;BME280;3631;42.152;24.756;2023-02-11T04:42:25;101265.13;;;-4.05;83.62
7180;BME280;3631;42.152;24.756;2023-02-11T04:45:27;101254.28;;;-4.02;83.51
7180;BME280;3631;42.152;24.756;2023-02-11T04:48:33;101270.56;;;-4.13;83.98
7180;BME280;3631;42.152;24.756;2023-02-11T04:51:36;101268.09;;;-4.26;84.89
7180;BME280;3631;42.152;24.756;2023-02-11T04:54:40;101264.97;;;-4.22;85.19
7180;BME280;3631;42.152;24.756;2023-02-11T04:57:35;101257.53;;;-4.19;84.91
7180;BME280;3631;42.152;24.756;2023-02-11T05:00:23;101259.34;;;-4.17;84.81
7180;BME280;3631;42.152;24.756;2023-02-11T05:03:23;101257.13;;;-4.40;86.10
7180;BME280;3631;42.152;24.756;2023-02-11T05:06:15;101255.47;;;-4.40;86.42
7180;BME280;3631;42.152;24.756;2023-02-11T05:09:03;101261.81;;;-4.18;85.79
7180;BME280;3631;42.152;24.756;2023-02-11T05:12:06;101258.31;;;-4.20;85.25
7180;BME280;3631;42.152;24.756;2023-02-11T05:18:06;101252.97;;;-4.25;85.79
7180;BME280;3631;42.152;24.756;2023-02-11T05:21:05;101261.00;;;-4.32;86.43
7180;BME280;3631;42.152;24.756;2023-02-11T05:31:05;101218.69;;;-4.48;86.85
7180;BME280;3631;42.152;24.756;2023-02-11T05:33:43;101267.38;;;-4.39;86.45
7180;BME280;3631;42.152;24.756;2023-02-11T05:36:16;101265.63;;;-4.40;86.31
7180;BME280;3631;42.152;24.756;2023-02-11T05:38:46;101259.34;;;-4.31;86.32
7180;BME280;3631;42.152;24.756;2023-02-11T05:41:21;101264.44;;;-4.31;85.37
7180;BME280;3631;42.152;24.756;2023-02-11T05:43:56;101258.47;;;-4.32;85.43
7180;BME280;3631;42.152;24.756;2023-02-11T05:46:41;101263.00;;;-4.26;84.61
7180;BME280;3631;42.152;24.756;2023-02-11T05:49:27;101257.09;;;-4.12;83.50
7180;BME280;3631;42.152;24.756;2023-02-11T05:52:07;101265.50;;;-3.98;81.07
7180;BME280;3631;42.152;24.756;2023-02-11T05:54:38;101275.09;;;-3.93;80.76
7180;BME280;3631;42.152;24.756;2023-02-11T05:57:07;101278.25;;;-3.68;79.37
7180;BME280;3631;42.152;24.756;2023-02-11T05:59:43;101285.34;;;-3.62;77.77
7180;BME280;3631;42.152;24.756;2023-02-11T06:02:29;101279.66;;;-3.73;77.50
7180;BME280;3631;42.152;24.756;2023-02-11T06:05:14;101285.94;;;-3.66;76.87
7180;BME280;3631;42.152;24.756;2023-02-11T06:08:01;101280.09;;;-3.65;76.63
7180;BME280;3631;42.152;24.756;2023-02-11T06:10:53;101278.06;;;-3.56;76.15
7180;BME280;3631;42.152;24.756;2023-02-11T06:13:47;101276.28;;;-3.42;75.20
7180;BME280;3631;42.152;24.756;2023-02-11T06:16:51;101276.47;;;-3.08;74.94
7180;BME280;3631;42.152;24.756;2023-02-11T06:20:08;101283.28;;;-1.05;68.19
7180;BME280;3631;42.152;24.756;2023-02-11T06:23:08;101279.16;;;1.69;56.60
7180;BME280;3631;42.152;24.756;2023-02-11T06:26:45;101289.56;;;3.96;49.27
7180;BME280;3631;42.152;24.756;2023-02-11T06:29:29;101288.13;;;5.98;44.76
7180;BME280;3631;42.152;24.756;2023-02-11T06:32:05;101291.09;;;7.37;40.48
7180;BME280;3631;42.152;24.756;2023-02-11T06:34:46;101301.44;;;8.11;38.19
7180;BME280;3631;42.152;24.756;2023-02-11T06:37:35;101298.94;;;6.81;39.26
7180;BME280;3631;42.152;24.756;2023-02-11T06:40:21;101307.19;;;5.65;41.09
7180;BME280;3631;42.152;24.756;2023-02-11T06:43:23;101294.78;;;3.68;43.88
7180;BME280;3631;42.152;24.756;2023-02-11T06:46:00;101292.78;;;2.18;47.86
7180;BME280;3631;42.152;24.756;2023-02-11T06:49:01;101287.31;;;1.13;51.38
7180;BME280;3631;42.152;24.756;2023-02-11T06:52:04;101285.81;;;0.52;54.03
7180;BME280;3631;42.152;24.756;2023-02-11T06:58:35;101271.53;;;0.36;55.16
7180;BME280;3631;42.152;24.756;2023-02-11T07:01:16;101275.34;;;0.46;54.83
7180;BME280;3631;42.152;24.756;2023-02-11T07:04:01;101271.47;;;0.35;56.84
7180;BME280;3631;42.152;24.756;2023-02-11T07:07:01;101273.81;;;0.29;55.89
7180;BME280;3631;42.152;24.756;2023-02-11T07:09:49;101273.44;;;0.20;55.54
7180;BME280;3631;42.152;24.756;2023-02-11T07:12:23;101272.50;;;0.18;55.91
7180;BME280;3631;42.152;24.756;2023-02-11T07:15:02;101273.66;;;0.26;55.84
7180;BME280;3631;42.152;24.756;2023-02-11T07:17:41;101267.00;;;0.29;54.79
7180;BME280;3631;42.152;24.756;2023-02-11T07:20:50;101267.19;;;0.55;54.31
7180;BME280;3631;42.152;24.756;2023-02-11T07:23:35;101273.22;;;0.57;54.91
7180;BME280;3631;42.152;24.756;2023-02-11T07:26:25;101276.63;;;0.57;56.11
7180;BME280;3631;42.152;24.756;2023-02-11T07:29:29;101270.72;;;0.58;55.34
7180;BME280;3631;42.152;24.756;2023-02-11T07:32:04;101255.34;;;0.79;55.02
7180;BME280;3631;42.152;24.756;2023-02-11T07:34:38;101249.59;;;0.62;54.61
7180;BME280;3631;42.152;24.756;2023-02-11T07:37:38;101256.28;;;0.81;54.95
7180;BME280;3631;42.152;24.756;2023-02-11T07:40:20;101261.31;;;1.02;53.73
7180;BME280;3631;42.152;24.756;2023-02-11T07:43:11;101261.91;;;1.17;54.02
7180;BME280;3631;42.152;24.756;2023-02-11T07:46:10;101255.47;;;1.04;54.74
7180;BME280;3631;42.152;24.756;2023-02-11T07:49:22;101250.47;;;1.07;54.36
7180;BME280;3631;42.152;24.756;2023-02-11T07:52:06;101255.91;;;1.17;55.15
7180;BME280;3631;42.152;24.756;2023-02-11T07:55:01;101249.63;;;1.31;54.68
7180;BME280;3631;42.152;24.756;2023-02-11T07:57:58;101254.06;;;1.36;53.38
7180;BME280;3631;42.152;24.756;2023-02-11T08:00:46;101246.06;;;1.27;53.60
7180;BME280;3631;42.152;24.756;2023-02-11T08:03:44;101245.25;;;1.28;54.82
7180;BME280;3631;42.152;24.756;2023-02-11T08:06:57;101250.63;;;1.36;55.07
7180;BME280;3631;42.152;24.756;2023-02-11T08:09:59;101241.34;;;1.38;54.73
7180;BME280;3631;42.152;24.756;2023-02-11T08:12:43;101241.47;;;1.41;53.21
7180;BME280;3631;42.152;24.756;2023-02-11T08:15:15;101244.63;;;1.34;55.46
7180;BME280;3631;42.152;24.756;2023-02-11T08:18:09;101240.97;;;1.27;55.09
7180;BME280;3631;42.152;24.756;2023-02-11T08:21:27;101232.53;;;1.30;55.11
7180;BME280;3631;42.152;24.756;2023-02-11T08:24:19;101227.22;;;1.25;55.98
7180;BME280;3631;42.152;24.756;2023-02-11T08:27:04;101226.41;;;1.26;56.40
7180;BME280;3631;42.152;24.756;2023-02-11T08:29:44;101225.78;;;1.32;57.53
7180;BME280;3631;42.152;24.756;2023-02-11T08:32:33;101228.41;;;1.33;56.21
7180;BME280;3631;42.152;24.756;2023-02-11T08:35:26;101197.66;;;1.32;57.53
7180;BME280;3631;42.152;24.756;2023-02-11T08:38:23;101213.84;;;1.56;57.46
7180;BME280;3631;42.152;24.756;2023-02-11T08:41:14;101210.16;;;1.73;55.71
7180;BME280;3631;42.152;24.756;2023-02-11T08:44:15;101209.09;;;1.67;56.73
7180;BME280;3631;42.152;24.756;2023-02-11T08:47:14;101207.66;;;1.75;57.34
7180;BME280;3631;42.152;24.756;2023-02-11T08:50:15;101202.78;;;1.82;58.51
7180;BME280;3631;42.152;24.756;2023-02-11T08:53:09;101202.66;;;1.78;56.99
7180;BME280;3631;42.152;24.756;2023-02-11T08:56:16;101209.59;;;1.82;56.61
7180;BME280;3631;42.152;24.756;2023-02-11T08:59:26;101204.69;;;1.88;57.54
7180;BME280;3631;42.152;24.756;2023-02-11T09:02:23;101201.41;;;1.92;57.44
7180;BME280;3631;42.152;24.756;2023-02-11T09:05:12;101188.19;;;2.05;57.26
7180;BME280;3631;42.152;24.756;2023-02-11T09:08:15;101184.91;;;2.09;56.71
7180;BME280;3631;42.152;24.756;2023-02-11T09:20:49;101190.03;;;2.36;53.76
7180;BME280;3631;42.152;24.756;2023-02-11T09:23:55;101177.06;;;2.59;53.74
7180;BME280;3631;42.152;24.756;2023-02-11T09:26:49;101172.28;;;2.71;52.03
7180;BME280;3631;42.152;24.756;2023-02-11T09:30:19;101162.59;;;2.90;51.62
7180;BME280;3631;42.152;24.756;2023-02-11T09:33:25;101167.84;;;2.95;52.64
7180;BME280;3631;42.152;24.756;2023-02-11T09:36:27;101134.41;;;2.90;51.52
7180;BME280;3631;42.152;24.756;2023-02-11T09:39:25;101167.63;;;3.17;52.83
7180;BME280;3631;42.152;24.756;2023-02-11T09:46:04;101154.09;;;3.23;52.63
7180;BME280;3631;42.152;24.756;2023-02-11T09:49:21;101152.50;;;3.28;51.01
7180;BME280;3631;42.152;24.756;2023-02-11T09:52:39;101140.91;;;3.42;50.38
7180;BME280;3631;42.152;24.756;2023-02-11T09:55:47;101134.53;;;3.59;48.93
7180;BME280;3631;42.152;24.756;2023-02-11T09:58:51;101123.25;;;3.54;50.20
7180;BME280;3631;42.152;24.756;2023-02-11T10:02:05;101108.84;;;3.59;50.04
7180;BME280;3631;42.152;24.756;2023-02-11T10:08:47;101087.75;;;3.71;49.73
7180;BME280;3631;42.152;24.756;2023-02-11T10:12:02;101067.13;;;3.68;48.78
7180;BME280;3631;42.152;24.756;2023-02-11T10:15:24;101078.56;;;3.81;49.24
7180;BME280;3631;42.152;24.756;2023-02-11T10:18:37;101071.88;;;3.89;48.72
7180;BME280;3631;42.152;24.756;2023-02-11T10:21:24;101069.19;;;3.83;48.54
7180;BME280;3631;42.152;24.756;2023-02-11T10:24:12;101065.00;;;3.88;49.23
7180;BME280;3631;42.152;24.756;2023-02-11T10:27:12;101056.91;;;4.09;47.56
7180;BME280;3631;42.152;24.756;2023-02-11T10:30:23;101044.84;;;4.05;47.60
7180;BME280;3631;42.152;24.756;2023-02-11T10:33:24;101039.94;;;4.15;46.13
7180;BME280;3631;42.152;24.756;2023-02-11T10:36:17;101038.44;;;4.25;46.13
7180;BME280;3631;42.152;24.756;2023-02-11T10:42:55;101010.22;;;4.29;54.34
7180;BME280;3631;42.152;24.756;2023-02-11T10:45:54;101021.84;;;4.51;46.93
7180;BME280;3631;42.152;24.756;2023-02-11T10:48:52;101015.97;;;4.58;46.28
7180;BME280;3631;42.152;24.756;2023-02-11T10:51:39;101003.28;;;4.67;46.18
7180;BME280;3631;42.152;24.756;2023-02-11T10:54:17;101004.22;;;4.71;45.27
7180;BME280;3631;42.152;24.756;2023-02-11T10:56:59;100997.53;;;4.81;44.12
7180;BME280;3631;42.152;24.756;2023-02-11T10:59:34;100988.81;;;4.72;44.77
7180;BME280;3631;42.152;24.756;2023-02-11T11:02:28;100966.53;;;4.74;44.23
7180;BME280;3631;42.152;24.756;2023-02-11T11:05:27;100979.72;;;4.91;43.21
7180;BME280;3631;42.152;24.756;2023-02-11T11:08:24;100966.09;;;4.98;43.10
7180;BME280;3631;42.152;24.756;2023-02-11T11:11:17;100966.28;;;5.09;42.72
7180;BME280;3631;42.152;24.756;2023-02-11T11:14:07;100952.59;;;5.11;43.79
7180;BME280;3631;42.152;24.756;2023-02-11T11:17:24;100961.97;;;5.08;43.08
7180;BME280;3631;42.152;24.756;2023-02-11T11:20:24;100947.88;;;4.86;42.94
7180;BME280;3631;42.152;24.756;2023-02-11T11:23:15;100942.78;;;4.89;42.54
7180;BME280;3631;42.152;24.756;2023-02-11T11:26:07;100914.50;;;4.89;42.51
7180;BME280;3631;42.152;24.756;2023-02-11T11:29:00;100931.81;;;4.99;42.08
7180;BME280;3631;42.152;24.756;2023-02-11T11:31:49;100930.16;;;5.03;41.26
7180;BME280;3631;42.152;24.756;2023-02-11T11:34:39;100927.75;;;5.14;41.24
7180;BME280;3631;42.152;24.756;2023-02-11T11:37:50;100923.56;;;5.19;40.23
7180;BME280;3631;42.152;24.756;2023-02-11T11:51:23;100891.81;;;5.20;38.79
7180;BME280;3631;42.152;24.756;2023-02-11T11:54:11;100883.44;;;5.33;39.83
7180;BME280;3631;42.152;24.756;2023-02-11T11:56:52;100879.22;;;5.38;38.93
7180;BME280;3631;42.152;24.756;2023-02-11T11:59:52;100877.56;;;5.43;39.04
7180;BME280;3631;42.152;24.756;2023-02-11T12:02:58;100869.97;;;5.54;38.27
7180;BME280;3631;42.152;24.756;2023-02-11T12:05:55;100870.97;;;5.62;38.04
7180;BME280;3631;42.152;24.756;2023-02-11T12:08:58;100856.47;;;5.70;38.56
7180;BME280;3631;42.152;24.756;2023-02-11T12:12:04;100863.38;;;5.74;37.24
7180;BME280;3631;42.152;24.756;2023-02-11T12:15:26;100856.44;;;5.68;36.22
7180;BME280;3631;42.152;24.756;2023-02-11T12:21:48;100849.66;;;5.75;35.45
7180;BME280;3631;42.152;24.756;2023-02-11T12:28:09;100840.28;;;5.81;35.58
7180;BME280;3631;42.152;24.756;2023-02-11T12:31:12;100835.34;;;5.97;35.53
7180;BME280;3631;42.152;24.756;2023-02-11T12:34:21;100837.09;;;6.01;34.59
7180;BME280;3631;42.152;24.756;2023-02-11T12:37:35;100837.94;;;6.00;34.76
7180;BME280;3631;42.152;24.756;2023-02-11T12:40:37;100836.88;;;5.84;34.59
7180;BME280;3631;42.152;24.756;2023-02-11T12:43:51;100830.16;;;5.95;34.56
7180;BME280;3631;42.152;24.756;2023-02-11T12:47:11;100832.81;;;6.03;34.50
7180;BME280;3631;42.152;24.756;2023-02-11T12:50:21;100815.59;;;6.00;34.68
7180;BME280;3631;42.152;24.756;2023-02-11T12:53:54;100819.19;;;6.14;34.62
7180;BME280;3631;42.152;24.756;2023-02-11T12:56:43;100816.59;;;6.13;34.44
7180;BME280;3631;42.152;24.756;2023-02-11T13:00:01;100815.78;;;6.17;33.81
7180;BME280;3631;42.152;24.756;2023-02-11T13:02:58;100814.13;;;6.25;33.27
7180;BME280;3631;42.152;24.756;2023-02-11T13:06:02;100813.34;;;6.32;32.30
7180;BME280;3631;42.152;24.756;2023-02-11T13:09:13;100798.84;;;6.46;31.90
7180;BME280;3631;42.152;24.756;2023-02-11T13:12:09;100802.19;;;6.35;32.74
7180;BME280;3631;42.152;24.756;2023-02-11T13:15:16;100798.66;;;6.24;32.11
7180;BME280;3631;42.152;24.756;2023-02-11T13:18:26;100800.44;;;6.29;31.43
7180;BME280;3631;42.152;24.756;2023-02-11T13:21:59;100799.59;;;6.30;30.16
7180;BME280;3631;42.152;24.756;2023-02-11T13:24:43;100797.88;;;6.31;30.93
7180;BME280;3631;42.152;24.756;2023-02-11T13:27:56;100799.59;;;6.33;30.69
7180;BME280;3631;42.152;24.756;2023-02-11T13:30:59;100784.13;;;6.35;30.93
7180;BME280;3631;42.152;24.756;2023-02-11T13:33:59;100789.28;;;6.30;31.31
7180;BME280;3631;42.152;24.756;2023-02-11T13:36:44;100744.50;;;6.19;31.46
7180;BME280;3631;42.152;24.756;2023-02-11T13:40:05;100773.91;;;6.42;31.26
7180;BME280;3631;42.152;24.756;2023-02-11T13:43:17;100774.75;;;6.40;31.48
7180;BME280;3631;42.152;24.756;2023-02-11T13:46:09;100762.69;;;6.37;31.86
7180;BME280;3631;42.152;24.756;2023-02-11T13:49:29;100767.13;;;6.53;31.63
7180;BME280;3631;42.152;24.756;2023-02-11T13:52:27;100761.84;;;6.38;31.64
7180;BME280;3631;42.152;24.756;2023-02-11T13:55:26;100753.22;;;6.36;31.96
7180;BME280;3631;42.152;24.756;2023-02-11T13:58:29;100754.03;;;6.34;32.39
7180;BME280;3631;42.152;24.756;2023-02-11T14:05:11;100751.59;;;6.47;31.00
7180;BME280;3631;42.152;24.756;2023-02-11T14:08:29;100743.91;;;6.53;30.90
7180;BME280;3631;42.152;24.756;2023-02-11T14:11:49;100740.44;;;6.51;31.51
7180;BME280;3631;42.152;24.756;2023-02-11T14:14:33;100734.44;;;6.52;31.66
7180;BME280;3631;42.152;24.756;2023-02-11T14:17:32;100736.09;;;6.47;31.50
7180;BME280;3631;42.152;24.756;2023-02-11T14:20:39;100726.63;;;6.45;31.62
7180;BME280;3631;42.152;24.756;2023-02-11T14:23:24;100729.22;;;6.46;31.59
7180;BME280;3631;42.152;24.756;2023-02-11T14:26:14;100724.06;;;6.46;31.35
7180;BME280;3631;42.152;24.756;2023-02-11T14:29:06;100718.97;;;6.52;31.94
7180;BME280;3631;42.152;24.756;2023-02-11T14:32:01;100726.66;;;6.49;31.53
7180;BME280;3631;42.152;24.756;2023-02-11T14:34:57;100722.34;;;6.48;31.18
7180;BME280;3631;42.152;24.756;2023-02-11T14:37:43;100707.88;;;6.64;34.10
7180;BME280;3631;42.152;24.756;2023-02-11T14:40:28;100721.59;;;6.63;34.16
7180;BME280;3631;42.152;24.756;2023-02-11T14:43:09;100713.81;;;6.59;34.60
7180;BME280;3631;42.152;24.756;2023-02-11T14:45:49;100698.31;;;6.55;34.41
7180;BME280;3631;42.152;24.756;2023-02-11T14:48:34;100709.53;;;6.54;34.89
7180;BME280;3631;42.152;24.756;2023-02-11T14:51:19;100706.03;;;6.48;34.33
7180;BME280;3631;42.152;24.756;2023-02-11T14:54:01;100705.16;;;6.47;34.29
7180;BME280;3631;42.152;24.756;2023-02-11T14:57:14;100701.75;;;6.51;34.51
7180;BME280;3631;42.152;24.756;2023-02-11T15:00:12;100703.50;;;6.59;34.18
7180;BME280;3631;42.152;24.756;2023-02-11T15:02:57;100703.50;;;6.57;34.03
7180;BME280;3631;42.152;24.756;2023-02-11T15:05:50;100701.63;;;6.36;34.12
7180;BME280;3631;42.152;24.756;2023-02-11T15:09:12;100693.88;;;6.30;33.92
7180;BME280;3631;42.152;24.756;2023-02-11T15:12:03;100695.63;;;6.36;34.52
7180;BME280;3631;42.152;24.756;2023-02-11T15:15:03;100691.28;;;6.29;34.99
7180;BME280;3631;42.152;24.756;2023-02-11T15:17:44;100690.31;;;6.14;35.42
7180;BME280;3631;42.152;24.756;2023-02-11T15:20:28;100683.41;;;6.13;36.12
7180;BME280;3631;42.152;24.756;2023-02-11T15:23:07;100689.41;;;6.11;36.38
7180;BME280;3631;42.152;24.756;2023-02-11T15:25:58;100691.88;;;5.96;36.55
7180;BME280;3631;42.152;24.756;2023-02-11T15:28:36;100680.75;;;6.01;36.50
7180;BME280;3631;42.152;24.756;2023-02-11T15:31:15;100683.28;;;5.95;36.72
7180;BME280;3631;42.152;24.756;2023-02-11T15:33:53;100685.88;;;5.98;36.37
7180;BME280;3631;42.152;24.756;2023-02-11T15:36:28;100685.75;;;5.88;36.73
7180;BME280;3631;42.152;24.756;2023-02-11T15:39:28;100673.50;;;5.65;36.88
7180;BME280;3631;42.152;24.756;2023-02-11T15:42:22;100675.22;;;5.63;37.30
7180;BME280;3631;42.152;24.756;2023-02-11T15:45:20;100671.78;;;5.66;37.18
7180;BME280;3631;42.152;24.756;2023-02-11T15:48:02;100660.59;;;5.59;37.00
7180;BME280;3631;42.152;24.756;2023-02-11T15:50:37;100662.19;;;5.48;37.42
7180;BME280;3631;42.152;24.756;2023-02-11T15:53:24;100658.59;;;5.34;37.97
7180;BME280;3631;42.152;24.756;2023-02-11T15:56:11;100651.47;;;5.10;38.29
7180;BME280;3631;42.152;24.756;2023-02-11T15:59:15;100669.56;;;5.15;38.47
7180;BME280;3631;42.152;24.756;2023-02-11T16:01:47;100656.50;;;4.99;38.53
7180;BME280;3631;42.152;24.756;2023-02-11T16:04:26;100655.34;;;4.76;39.44
7180;BME280;3631;42.152;24.756;2023-02-11T16:07:05;100658.59;;;4.63;39.37
7180;BME280;3631;42.152;24.756;2023-02-11T16:09:39;100654.25;;;4.57;39.73
7180;BME280;3631;42.152;24.756;2023-02-11T16:12:26;100646.31;;;4.42;40.44
7180;BME280;3631;42.152;24.756;2023-02-11T16:18:36;100652.94;;;4.25;40.43
7180;BME280;3631;42.152;24.756;2023-02-11T16:24:41;100652.66;;;4.08;41.12
7180;BME280;3631;42.152;24.756;2023-02-11T16:27:40;100652.78;;;4.14;41.06
7180;BME280;3631;42.152;24.756;2023-02-11T16:33:33;100649.16;;;4.01;41.59
7180;BME280;3631;42.152;24.756;2023-02-11T16:36:14;100640.38;;;3.89;42.03
7180;BME280;3631;42.152;24.756;2023-02-11T16:39:11;100640.13;;;3.74;42.27
7180;BME280;3631;42.152;24.756;2023-02-11T16:42:07;100647.03;;;3.78;42.43
7180;BME280;3631;42.152;24.756;2023-02-11T16:45:08;100636.47;;;3.59;43.00
7180;BME280;3631;42.152;24.756;2023-02-11T16:48:09;100655.03;;;3.45;43.44
7180;BME280;3631;42.152;24.756;2023-02-11T16:51:15;100654.19;;;3.46;43.56
7180;BME280;3631;42.152;24.756;2023-02-11T16:54:03;100643.88;;;3.43;44.12
7180;BME280;3631;42.152;24.756;2023-02-11T16:56:47;100651.53;;;3.41;43.85
7180;BME280;3631;42.152;24.756;2023-02-11T16:59:49;100651.78;;;3.10;44.26
7180;BME280;3631;42.152;24.756;2023-02-11T17:02:51;100655.78;;;2.96;45.22
7180;BME280;3631;42.152;24.756;2023-02-11T17:05:35;100627.16;;;2.74;45.05
7180;BME280;3631;42.152;24.756;2023-02-11T17:08:07;100650.53;;;2.89;45.29
7180;BME280;3631;42.152;24.756;2023-02-11T17:10:47;100654.28;;;3.07;45.80
7180;BME280;3631;42.152;24.756;2023-02-11T17:13:33;100654.88;;;2.92;46.05
7180;BME280;3631;42.152;24.756;2023-02-11T17:16:18;100655.78;;;2.96;46.46
7180;BME280;3631;42.152;24.756;2023-02-11T17:19:08;100592.81;;;2.66;46.08
7180;BME280;3631;42.152;24.756;2023-02-11T17:25:17;100648.16;;;2.99;46.51
7180;BME280;3631;42.152;24.756;2023-02-11T17:28:14;100654.00;;;2.91;47.02
7180;BME280;3631;42.152;24.756;2023-02-11T17:31:05;100650.53;;;2.89;48.05
7180;BME280;3631;42.152;24.756;2023-02-11T17:33:40;100657.34;;;2.87;47.79
7180;BME280;3631;42.152;24.756;2023-02-11T17:36:13;100650.56;;;2.91;46.92